createdAt,value
2018-06-23T00:01:05.142Z,10.80
2018-06-23T00:03:33.569Z,10.80
2018-06-23T00:06:01.969Z,10.80
2018-06-23T00:08:30.589Z,10.70
2018-06-23T00:10:58.974Z,10.70
2018-06-23T00:15:55.600Z,10.60
2018-06-23T00:18:24.080Z,10.50
2018-06-23T00:20:52.677Z,10.40
2018-06-23T00:23:21.074Z,10.30
2018-06-23T00:25:54.952Z,10.30
2018-06-23T00:28:23.345Z,10.30
2018-06-23T00:30:51.762Z,10.20
2018-06-23T00:33:20.315Z,10.20
2018-06-23T00:35:48.729Z,10.20
2018-06-23T00:38:17.176Z,10.20
2018-06-23T00:40:45.589Z,10.20
2018-06-23T00:43:14.010Z,10.20
2018-06-23T00:45:42.475Z,10.30
2018-06-23T00:48:10.860Z,10.30
2018-06-23T00:50:39.252Z,10.30
2018-06-23T00:53:07.668Z,10.30
2018-06-23T00:55:36.070Z,10.30
2018-06-23T00:58:04.704Z,10.30
2018-06-23T01:00:33.090Z,10.30
2018-06-23T01:03:01.515Z,10.20
2018-06-23T01:05:29.945Z,10.20
2018-06-23T01:07:58.341Z,10.20
2018-06-23T01:10:26.716Z,10.20
2018-06-23T01:12:55.109Z,10.10
2018-06-23T01:15:23.481Z,10.10
2018-06-23T01:17:51.857Z,10.10
2018-06-23T01:20:20.276Z,10.10
2018-06-23T01:22:48.691Z,10.10
2018-06-23T01:25:17.105Z,10.10
2018-06-23T01:27:45.531Z,10.10
2018-06-23T01:30:13.944Z,10.10
2018-06-23T01:32:42.336Z,10.10
2018-06-23T01:35:10.765Z,10.00
2018-06-23T01:37:39.148Z,10.00
2018-06-23T01:40:07.545Z,10.00
2018-06-23T01:42:36.046Z,10.00
2018-06-23T01:45:04.466Z,9.90
2018-06-23T01:47:33.018Z,9.90
2018-06-23T01:50:01.424Z,9.90
2018-06-23T01:52:29.811Z,9.80
2018-06-23T01:54:58.212Z,9.90
2018-06-23T01:57:26.601Z,9.90
2018-06-23T01:59:55.175Z,9.80
2018-06-23T02:02:23.566Z,9.80
2018-06-23T02:04:51.949Z,9.70
2018-06-23T02:07:20.340Z,9.70
2018-06-23T02:09:48.792Z,9.70
2018-06-23T02:12:17.212Z,9.70
2018-06-23T02:14:50.776Z,9.70
2018-06-23T02:17:24.625Z,9.70
2018-06-23T02:19:58.589Z,9.70
2018-06-23T02:22:32.212Z,9.70
2018-06-23T02:25:06.072Z,9.70
2018-06-23T02:27:39.840Z,9.80
2018-06-23T02:30:13.717Z,9.80
2018-06-23T02:32:43.298Z,9.90
2018-06-23T02:35:11.859Z,9.90
2018-06-23T02:37:40.573Z,9.90
2018-06-23T02:40:09.069Z,9.90
2018-06-23T02:42:37.472Z,9.90
2018-06-23T02:45:07.078Z,9.80
2018-06-23T02:47:35.586Z,9.80
2018-06-23T02:50:04.108Z,9.80
2018-06-23T02:52:32.991Z,9.80
2018-06-23T02:55:01.939Z,9.70
2018-06-23T02:57:30.408Z,9.70
2018-06-23T02:59:59.136Z,9.80
2018-06-23T03:02:27.532Z,9.70
2018-06-23T03:07:24.657Z,9.60
2018-06-23T03:09:53.056Z,9.60
2018-06-23T03:12:21.465Z,9.50
2018-06-23T03:14:49.865Z,9.50
2018-06-23T03:17:19.281Z,9.50
2018-06-23T03:19:49.214Z,9.40
2018-06-23T03:22:17.792Z,9.40
2018-06-23T03:24:46.169Z,9.40
2018-06-23T03:27:15.044Z,9.30
2018-06-23T03:29:43.478Z,9.30
2018-06-23T03:32:12.432Z,9.40
2018-06-23T03:34:40.936Z,9.40
2018-06-23T03:37:09.580Z,9.40
2018-06-23T03:39:37.984Z,9.40
2018-06-23T03:42:06.620Z,9.40
2018-06-23T03:44:35.229Z,9.40
2018-06-23T03:47:03.848Z,9.40
2018-06-23T03:49:32.244Z,9.40
2018-06-23T03:52:00.626Z,9.30
2018-06-23T03:56:57.184Z,9.30
2018-06-23T03:59:25.580Z,9.30
2018-06-23T04:01:54.324Z,9.30
2018-06-23T04:04:22.692Z,9.30
2018-06-23T04:06:51.060Z,9.30
2018-06-23T04:09:19.571Z,9.40
2018-06-23T04:11:47.959Z,9.40
2018-06-23T04:14:16.341Z,9.50
2018-06-23T04:16:44.761Z,9.50
2018-06-23T04:19:13.132Z,9.50
2018-06-23T04:21:41.745Z,9.50
2018-06-23T04:24:10.132Z,9.50
2018-06-23T04:26:38.504Z,9.40
2018-06-23T04:29:07.047Z,9.40
2018-06-23T04:31:35.425Z,9.50
2018-06-23T04:34:03.825Z,9.60
2018-06-23T04:36:32.228Z,9.80
2018-06-23T04:39:00.620Z,9.90
2018-06-23T04:41:29.027Z,10.00
2018-06-23T04:43:57.430Z,10.20
2018-06-23T04:46:25.809Z,10.30
2018-06-23T04:48:54.190Z,10.40
2018-06-23T04:51:22.628Z,10.50
2018-06-23T04:53:51.000Z,10.50
2018-06-23T04:56:19.413Z,10.60
2018-06-23T04:58:47.911Z,10.80
2018-06-23T05:01:16.346Z,10.80
2018-06-23T05:03:44.733Z,11.00
2018-06-23T05:06:13.164Z,11.30
2018-06-23T05:08:41.560Z,11.70
2018-06-23T05:11:09.960Z,11.90
2018-06-23T05:13:38.600Z,11.70
2018-06-23T05:16:07.208Z,11.70
2018-06-23T05:18:35.601Z,11.60
2018-06-23T05:21:04.036Z,11.50
2018-06-23T05:23:32.444Z,11.40
2018-06-23T05:26:00.879Z,11.40
2018-06-23T05:28:29.253Z,11.40
2018-06-23T05:30:57.650Z,11.30
2018-06-23T05:33:26.057Z,11.30
2018-06-23T05:35:54.721Z,11.30
2018-06-23T05:38:23.085Z,11.30
2018-06-23T05:40:51.870Z,11.30
2018-06-23T05:43:20.273Z,11.40
2018-06-23T05:45:48.652Z,11.50
2018-06-23T05:48:17.043Z,11.40
2018-06-23T05:50:45.469Z,11.50
2018-06-23T05:53:14.735Z,11.50
2018-06-23T05:55:43.129Z,11.70
2018-06-23T05:58:11.550Z,11.80
2018-06-23T06:00:40.025Z,11.70
2018-06-23T06:03:08.420Z,11.70
2018-06-23T06:05:37.015Z,11.80
2018-06-23T06:08:05.453Z,11.80
2018-06-23T06:10:33.866Z,11.90
2018-06-23T06:13:02.295Z,11.90
2018-06-23T06:15:30.843Z,12.00
2018-06-23T06:17:59.273Z,11.90
2018-06-23T06:20:27.884Z,12.00
2018-06-23T06:22:56.284Z,12.00
2018-06-23T06:25:24.713Z,12.00
2018-06-23T06:27:53.276Z,12.00
2018-06-23T06:30:21.744Z,12.10
2018-06-23T06:32:50.251Z,12.10
2018-06-23T06:35:18.717Z,12.20
2018-06-23T06:37:47.099Z,12.30
2018-06-23T06:40:15.526Z,12.40
2018-06-23T06:42:43.988Z,12.40
2018-06-23T06:45:12.416Z,12.30
2018-06-23T06:47:40.808Z,12.10
2018-06-23T06:50:09.292Z,12.10
2018-06-23T06:52:37.694Z,12.30
2018-06-23T06:55:06.116Z,12.40
2018-06-23T06:57:34.607Z,12.60
2018-06-23T07:00:03.035Z,12.90
2018-06-23T07:02:31.415Z,13.00
2018-06-23T07:04:59.840Z,13.30
2018-06-23T07:07:28.262Z,13.50
2018-06-23T07:09:56.785Z,14.10
2018-06-23T07:12:25.200Z,14.40
2018-06-23T07:14:53.643Z,14.60
2018-06-23T07:17:22.091Z,14.50
2018-06-23T07:19:50.592Z,14.90
2018-06-23T07:22:18.961Z,15.30
2018-06-23T07:24:47.351Z,15.50
2018-06-23T07:27:15.776Z,15.90
2018-06-23T07:29:44.255Z,15.80
2018-06-23T07:32:12.674Z,16.00
2018-06-23T07:34:41.216Z,15.90
2018-06-23T07:37:09.552Z,16.00
2018-06-23T07:39:37.957Z,16.20
2018-06-23T07:42:06.625Z,16.10
2018-06-23T07:44:35.062Z,15.80
2018-06-23T07:47:03.443Z,15.90
2018-06-23T07:49:31.868Z,15.90
2018-06-23T07:54:28.333Z,16.10
2018-06-23T07:56:56.848Z,16.00
2018-06-23T07:59:25.269Z,16.00
2018-06-23T08:01:54.195Z,15.80
2018-06-23T08:04:22.826Z,16.10
2018-06-23T08:06:51.228Z,16.30
2018-06-23T08:09:19.640Z,16.70
2018-06-23T08:11:48.218Z,16.50
2018-06-23T08:14:16.600Z,16.80
2018-06-23T08:16:45.011Z,17.20
2018-06-23T08:19:13.708Z,17.30
2018-06-23T08:21:42.212Z,17.20
2018-06-23T08:24:10.614Z,17.00
2018-06-23T08:26:39.362Z,16.10
2018-06-23T08:29:07.759Z,15.90
2018-06-23T08:31:36.189Z,15.70
2018-06-23T08:34:04.800Z,15.60
2018-06-23T08:36:33.223Z,15.70
2018-06-23T08:39:01.758Z,15.70
2018-06-23T08:41:30.415Z,15.80
2018-06-23T08:43:58.957Z,15.90
2018-06-23T08:46:28.003Z,16.00
2018-06-23T08:48:56.401Z,16.20
2018-06-23T08:51:24.789Z,16.40
2018-06-23T08:56:21.703Z,16.90
2018-06-23T08:58:50.167Z,17.20
2018-06-23T09:01:18.800Z,17.20
2018-06-23T09:03:47.204Z,17.10
2018-06-23T09:06:15.633Z,16.30
2018-06-23T09:08:44.049Z,15.90
2018-06-23T09:11:12.470Z,15.90
2018-06-23T09:13:40.901Z,15.70
2018-06-23T09:16:09.413Z,15.60
2018-06-23T09:18:38.007Z,15.60
2018-06-23T09:21:06.449Z,15.50
2018-06-23T09:23:34.872Z,15.50
2018-06-23T09:26:03.320Z,15.50
2018-06-23T09:28:31.695Z,15.50
2018-06-23T09:31:00.165Z,15.50
2018-06-23T09:35:56.694Z,15.60
2018-06-23T09:38:25.172Z,15.60
2018-06-23T09:40:53.579Z,15.50
2018-06-23T09:43:21.982Z,15.40
2018-06-23T09:45:51.351Z,15.50
2018-06-23T09:48:19.713Z,15.80
2018-06-23T09:50:48.120Z,16.10
2018-06-23T09:53:16.680Z,16.50
2018-06-23T09:55:45.124Z,16.70
2018-06-23T09:58:13.504Z,16.90
2018-06-23T10:00:42.032Z,17.00
2018-06-23T10:03:10.583Z,16.90
2018-06-23T10:05:38.940Z,16.80
2018-06-23T10:08:07.345Z,16.60
2018-06-23T10:10:35.752Z,16.40
2018-06-23T10:13:04.203Z,16.30
2018-06-23T10:15:32.793Z,16.20
2018-06-23T10:18:01.296Z,16.00
2018-06-23T10:20:29.735Z,15.90
2018-06-23T10:22:58.165Z,15.80
2018-06-23T10:25:26.707Z,15.70
2018-06-23T10:27:55.132Z,15.70
2018-06-23T10:30:23.567Z,15.60
2018-06-23T10:32:51.989Z,15.50
2018-06-23T10:35:20.441Z,15.30
2018-06-23T10:37:48.883Z,15.20
2018-06-23T10:40:17.311Z,15.00
2018-06-23T10:42:45.803Z,14.90
2018-06-23T10:45:14.193Z,14.90
2018-06-23T10:47:42.610Z,15.00
2018-06-23T10:50:11.065Z,15.00
2018-06-23T10:52:39.582Z,15.00
2018-06-23T10:55:08.015Z,15.20
2018-06-23T10:57:36.396Z,15.30
2018-06-23T11:00:05.276Z,15.70
2018-06-23T11:02:33.694Z,15.80
2018-06-23T11:05:02.163Z,16.00
2018-06-23T11:07:30.556Z,16.00
2018-06-23T11:09:58.955Z,16.00
2018-06-23T11:12:27.381Z,15.90
2018-06-23T11:14:55.805Z,15.80
2018-06-23T11:17:24.282Z,15.70
2018-06-23T11:19:52.702Z,15.60
2018-06-23T11:22:21.229Z,15.50
2018-06-23T11:24:50.036Z,15.40
2018-06-23T11:27:18.431Z,15.40
2018-06-23T11:29:46.955Z,15.20
2018-06-23T11:32:15.510Z,15.20
2018-06-23T11:34:43.853Z,15.10
2018-06-23T11:39:40.560Z,15.10
2018-06-23T11:42:08.953Z,15.00
2018-06-23T11:44:37.400Z,15.00
2018-06-23T11:47:06.254Z,15.00
2018-06-23T11:49:34.679Z,15.00
2018-06-23T11:52:03.142Z,15.00
2018-06-23T11:54:31.549Z,15.00
2018-06-23T11:57:00.000Z,15.10
2018-06-23T11:59:28.656Z,15.00
2018-06-23T12:01:57.189Z,15.10
2018-06-23T12:04:26.605Z,15.10
2018-06-23T12:06:55.394Z,15.10
2018-06-23T12:09:24.397Z,15.00
2018-06-23T12:11:53.293Z,15.10
2018-06-23T12:14:21.760Z,15.10
2018-06-23T12:16:50.360Z,15.20
2018-06-23T12:19:19.012Z,15.10
2018-06-23T12:21:47.412Z,15.10
2018-06-23T12:24:15.862Z,15.20
2018-06-23T12:26:44.284Z,15.20
2018-06-23T12:29:12.769Z,15.30
2018-06-23T12:31:41.214Z,15.40
2018-06-23T12:34:09.692Z,15.40
2018-06-23T12:36:38.172Z,15.40
2018-06-23T12:39:09.550Z,15.40
2018-06-23T12:41:38.282Z,15.10
2018-06-23T12:44:06.810Z,15.00
2018-06-23T12:46:36.617Z,14.90
2018-06-23T12:49:05.282Z,14.90
2018-06-23T12:51:34.064Z,15.00
2018-06-23T12:54:02.578Z,15.30
2018-06-23T12:56:31.091Z,15.70
2018-06-23T12:58:59.529Z,16.00
2018-06-23T13:01:27.901Z,16.30
2018-06-23T13:03:56.346Z,16.50
2018-06-23T13:06:25.097Z,16.80
2018-06-23T13:08:53.500Z,17.20
2018-06-23T13:11:22.049Z,17.50
2018-06-23T13:13:50.464Z,17.80
2018-06-23T13:16:18.876Z,18.00
2018-06-23T13:18:47.279Z,18.10
2018-06-23T13:21:15.841Z,18.60
2018-06-23T13:23:44.284Z,19.00
2018-06-23T13:26:12.725Z,19.20
2018-06-23T13:28:41.144Z,20.20
2018-06-23T13:31:09.584Z,20.80
2018-06-23T13:33:38.005Z,20.90
2018-06-23T13:36:06.437Z,20.20
2018-06-23T13:38:34.986Z,20.30
2018-06-23T13:41:05.557Z,19.30
2018-06-23T13:43:34.409Z,18.70
2018-06-23T13:46:02.908Z,18.80
2018-06-23T13:48:31.333Z,19.30
2018-06-23T13:50:59.912Z,19.80
2018-06-23T13:53:28.433Z,20.30
2018-06-23T13:55:56.863Z,21.10
2018-06-23T13:58:25.377Z,21.50
2018-06-23T14:00:54.013Z,21.70
2018-06-23T14:03:22.787Z,22.00
2018-06-23T14:05:51.188Z,21.80
2018-06-23T14:08:19.644Z,21.70
2018-06-23T14:10:48.088Z,21.60
2018-06-23T14:13:16.512Z,21.50
2018-06-23T14:15:44.953Z,20.80
2018-06-23T14:18:13.365Z,20.50
2018-06-23T14:20:41.964Z,20.70
2018-06-23T14:23:10.368Z,20.60
2018-06-23T14:28:07.408Z,20.80
2018-06-23T14:33:04.101Z,21.20
2018-06-23T14:35:32.833Z,20.80
2018-06-23T14:38:01.332Z,21.10
2018-06-23T14:40:29.757Z,21.10
2018-06-23T14:42:58.169Z,21.30
2018-06-23T14:45:26.596Z,21.60
2018-06-23T14:47:55.239Z,21.40
2018-06-23T14:50:23.665Z,21.20
2018-06-23T14:52:52.173Z,21.20
2018-06-23T14:55:20.568Z,21.00
2018-06-23T14:57:48.967Z,20.80
2018-06-23T15:00:17.409Z,21.10
2018-06-23T15:02:45.844Z,21.10
2018-06-23T15:05:14.281Z,20.80
2018-06-23T15:07:42.984Z,20.60
2018-06-23T15:10:22.751Z,20.30
2018-06-23T15:13:02.364Z,20.40
2018-06-23T15:15:30.806Z,20.50
2018-06-23T15:17:59.221Z,20.70
2018-06-23T15:20:27.774Z,21.00
2018-06-23T15:22:56.320Z,21.10
2018-06-23T15:25:24.790Z,21.30
2018-06-23T15:27:53.276Z,21.30
2018-06-23T15:30:21.737Z,21.10
2018-06-23T15:32:50.147Z,20.90
2018-06-23T15:35:18.586Z,20.50
2018-06-23T15:37:47.072Z,20.20
2018-06-23T15:40:15.585Z,20.00
2018-06-23T15:42:43.992Z,19.90
2018-06-23T15:45:12.402Z,20.00
2018-06-23T15:47:41.017Z,20.10
2018-06-23T15:50:09.460Z,19.80
2018-06-23T15:52:37.897Z,19.60
2018-06-23T15:55:06.503Z,19.60
2018-06-23T15:57:34.981Z,19.40
2018-06-23T16:00:03.472Z,19.70
2018-06-23T16:02:31.872Z,19.80
2018-06-23T16:05:00.279Z,19.80
2018-06-23T16:07:28.859Z,20.00
2018-06-23T16:09:57.356Z,19.90
2018-06-23T16:12:25.773Z,20.20
2018-06-23T16:14:54.355Z,20.40
2018-06-23T16:17:22.780Z,20.60
2018-06-23T16:19:51.165Z,20.70
2018-06-23T16:22:19.680Z,20.60
2018-06-23T16:24:48.236Z,20.60
2018-06-23T16:27:16.620Z,20.70
2018-06-23T16:29:45.233Z,20.60
2018-06-23T16:32:13.632Z,20.10
2018-06-23T16:34:42.279Z,20.00
2018-06-23T16:37:10.556Z,20.10
2018-06-23T16:39:38.997Z,19.90
2018-06-23T16:42:07.483Z,19.80
2018-06-23T16:44:36.079Z,19.90
2018-06-23T16:47:04.476Z,20.20
2018-06-23T16:49:33.229Z,20.50
2018-06-23T16:52:01.729Z,20.30
2018-06-23T16:54:30.141Z,20.10
2018-06-23T16:56:58.596Z,20.10
2018-06-23T16:59:27.086Z,20.30
2018-06-23T17:01:55.877Z,20.20
2018-06-23T17:04:24.317Z,19.70
2018-06-23T17:06:53.896Z,19.40
2018-06-23T17:09:22.600Z,19.50
2018-06-23T17:11:51.307Z,19.80
2018-06-23T17:14:20.110Z,20.00
2018-06-23T17:16:48.853Z,20.00
2018-06-23T17:19:17.612Z,20.10
2018-06-23T17:21:46.676Z,20.00
2018-06-23T17:24:15.300Z,20.20
2018-06-23T17:26:43.672Z,20.20
2018-06-23T17:29:12.160Z,20.20
2018-06-23T17:31:40.588Z,20.10
2018-06-23T17:34:09.088Z,20.00
2018-06-23T17:36:37.577Z,20.00
2018-06-23T17:39:07.713Z,20.00
2018-06-23T17:41:36.405Z,19.90
2018-06-23T17:44:05.445Z,19.80
2018-06-23T17:46:34.117Z,19.50
2018-06-23T17:49:02.631Z,19.40
2018-06-23T17:51:31.126Z,19.30
2018-06-23T17:53:59.689Z,19.30
2018-06-23T17:56:28.172Z,19.20
2018-06-23T17:58:59.434Z,19.10
2018-06-23T18:01:30.777Z,19.00
2018-06-23T18:03:59.376Z,18.80
2018-06-23T18:06:30.224Z,18.70
2018-06-23T18:09:01.427Z,18.60
2018-06-23T18:11:31.636Z,18.50
2018-06-23T18:14:01.269Z,18.40
2018-06-23T18:16:31.106Z,18.30
2018-06-23T18:18:59.544Z,18.30
2018-06-23T18:21:28.132Z,18.30
2018-06-23T18:23:56.755Z,18.20
2018-06-23T18:26:25.124Z,18.20
2018-06-23T18:28:53.784Z,18.10
2018-06-23T18:31:22.200Z,18.00
2018-06-23T18:33:50.584Z,17.90
2018-06-23T18:36:18.989Z,17.90
2018-06-23T18:38:47.621Z,17.90
2018-06-23T18:41:16.100Z,17.80
2018-06-23T18:43:44.532Z,17.80
2018-06-23T18:46:13.009Z,17.70
2018-06-23T18:48:41.715Z,17.70
2018-06-23T18:51:10.837Z,17.70
2018-06-23T18:53:39.883Z,17.70
2018-06-23T18:56:08.502Z,17.70
2018-06-23T18:58:36.926Z,17.60
2018-06-23T19:01:05.588Z,17.50
2018-06-23T19:03:34.391Z,17.40
2018-06-23T19:06:02.797Z,17.30
2018-06-23T19:08:31.313Z,17.20
2018-06-23T19:10:59.776Z,17.10
2018-06-23T19:13:28.221Z,17.00
2018-06-23T19:15:56.829Z,16.90
2018-06-23T19:18:25.232Z,16.80
2018-06-23T19:20:53.824Z,16.80
2018-06-23T19:23:22.252Z,16.80
2018-06-23T19:25:50.670Z,16.70
2018-06-23T19:28:19.184Z,16.60
2018-06-23T19:30:47.666Z,16.60
2018-06-23T19:33:16.122Z,16.60
2018-06-23T19:35:44.552Z,16.50
2018-06-23T19:38:13.093Z,16.50
2018-06-23T19:40:41.501Z,16.40
2018-06-23T19:43:09.901Z,16.30
2018-06-23T19:45:38.751Z,16.30
2018-06-23T19:48:07.457Z,16.20
2018-06-23T19:50:35.891Z,16.20
2018-06-23T19:53:04.373Z,16.20
2018-06-23T19:55:32.886Z,16.10
2018-06-23T19:58:01.309Z,16.00
2018-06-23T20:00:29.722Z,16.00
2018-06-23T20:02:58.217Z,15.90
2018-06-23T20:05:26.889Z,15.90
2018-06-23T20:07:55.284Z,15.90
2018-06-23T20:10:23.676Z,15.90
2018-06-23T20:12:52.091Z,15.90
2018-06-23T20:15:20.508Z,15.80
2018-06-23T20:17:48.945Z,15.80
2018-06-23T20:20:17.372Z,15.80
2018-06-23T20:22:45.892Z,15.80
2018-06-23T20:25:14.288Z,15.70
2018-06-23T20:27:42.725Z,15.70
2018-06-23T20:30:11.196Z,15.70
2018-06-23T20:32:39.728Z,15.70
2018-06-23T20:35:08.316Z,15.70
2018-06-23T20:37:36.848Z,15.60
2018-06-23T20:40:05.409Z,15.70
2018-06-23T20:42:33.815Z,15.60
2018-06-23T20:45:02.196Z,15.60
2018-06-23T20:47:30.655Z,15.50
2018-06-23T20:49:59.219Z,15.50
2018-06-23T20:52:27.596Z,15.60
2018-06-23T20:54:56.004Z,15.50
2018-06-23T20:57:24.721Z,15.60
2018-06-23T20:59:53.728Z,15.50
2018-06-23T21:02:22.133Z,15.50
2018-06-23T21:04:50.776Z,15.40
2018-06-23T21:07:19.290Z,15.40
2018-06-23T21:09:47.768Z,15.30
2018-06-23T21:12:16.182Z,15.20
2018-06-23T21:17:12.920Z,15.10
2018-06-23T21:19:41.519Z,15.10
2018-06-23T21:22:10.024Z,15.10
2018-06-23T21:24:38.835Z,15.00
2018-06-23T21:27:07.445Z,15.00
2018-06-23T21:29:35.837Z,15.00
2018-06-23T21:32:04.433Z,15.00
2018-06-23T21:34:33.355Z,14.90
2018-06-23T21:37:01.742Z,14.90
2018-06-23T21:39:30.231Z,14.80
2018-06-23T21:41:59.068Z,14.80
2018-06-23T21:44:27.584Z,14.70
2018-06-23T21:46:56.000Z,14.70
2018-06-23T21:49:24.437Z,14.70
2018-06-23T21:51:52.972Z,14.70
2018-06-23T21:54:21.689Z,14.70
2018-06-23T21:56:50.093Z,14.60
2018-06-23T21:59:18.621Z,14.60
2018-06-23T22:01:47.120Z,14.60
2018-06-23T22:06:43.843Z,14.60
2018-06-23T22:09:12.313Z,14.60
2018-06-23T22:11:40.842Z,14.60
2018-06-23T22:14:09.275Z,14.60
2018-06-23T22:16:37.693Z,14.70
2018-06-23T22:19:06.132Z,14.60
2018-06-23T22:21:34.578Z,14.60
2018-06-23T22:24:03.016Z,14.60
2018-06-23T22:26:31.516Z,14.60
2018-06-23T22:29:00.185Z,14.60
2018-06-23T22:31:28.636Z,14.60
2018-06-23T22:33:57.336Z,14.70
2018-06-23T22:36:25.905Z,14.70
2018-06-23T22:38:54.337Z,14.60
2018-06-23T22:41:22.865Z,14.60
2018-06-23T22:43:51.273Z,14.60
2018-06-23T22:46:19.680Z,14.60
2018-06-23T22:48:48.080Z,14.60
2018-06-23T22:51:16.730Z,14.60
2018-06-23T22:53:45.155Z,14.60
2018-06-23T22:56:13.765Z,14.60
2018-06-23T22:58:42.244Z,14.60
2018-06-23T23:01:10.828Z,14.50
2018-06-23T23:03:39.258Z,14.50
2018-06-23T23:06:07.685Z,14.50
2018-06-23T23:08:36.377Z,14.50
2018-06-23T23:11:05.068Z,14.50
2018-06-23T23:13:33.456Z,14.60
2018-06-23T23:16:01.865Z,14.60
2018-06-23T23:18:30.389Z,14.60
2018-06-23T23:20:58.888Z,14.60
2018-06-23T23:23:27.321Z,14.60
2018-06-23T23:25:55.818Z,14.60
2018-06-23T23:28:24.217Z,14.50
2018-06-23T23:30:53.394Z,14.50
2018-06-23T23:33:21.954Z,14.50
2018-06-23T23:35:50.356Z,14.50
2018-06-23T23:38:18.754Z,14.50
2018-06-23T23:40:47.166Z,14.40
2018-06-23T23:43:15.981Z,14.50
2018-06-23T23:45:45.635Z,14.40
2018-06-23T23:48:14.171Z,14.40
2018-06-23T23:50:42.601Z,14.40
2018-06-23T23:53:11.111Z,14.40
2018-06-23T23:55:39.500Z,14.40
2018-06-23T23:58:07.920Z,14.50
